sensor_id;sensor_type;location;lat;lon;timestamp;P1;durP1;ratioP1;P2;durP2;ratioP2
11943;SDS011;6031;50.220;10.122;2022-12-07T00:00:54;8.70;;;6.60;;
11943;SDS011;6031;50.220;10.122;2022-12-07T00:03:20;9.23;;;6.17;;
11943;SDS011;6031;50.220;10.122;2022-12-07T00:05:46;8.80;;;6.83;;
11943;SDS011;6031;50.220;10.122;2022-12-07T00:08:12;15.67;;;9.10;;
11943;SDS011;6031;50.220;10.122;2022-12-07T00:10:37;9.97;;;7.73;;
11943;SDS011;6031;50.220;10.122;2022-12-07T00:13:03;8.37;;;6.70;;
11943;SDS011;6031;50.220;10.122;2022-12-07T00:15:28;10.53;;;6.80;;
11943;SDS011;6031;50.220;10.122;2022-12-07T00:17:54;9.90;;;7.30;;
11943;SDS011;6031;50.220;10.122;2022-12-07T00:20:19;18.17;;;14.80;;
11943;SDS011;6031;50.220;10.122;2022-12-07T00:22:45;14.20;;;11.20;;
11943;SDS011;6031;50.220;10.122;2022-12-07T00:25:10;10.80;;;8.47;;
11943;SDS011;6031;50.220;10.122;2022-12-07T00:27:36;10.73;;;7.20;;
11943;SDS011;6031;50.220;10.122;2022-12-07T00:30:01;9.07;;;6.77;;
11943;SDS011;6031;50.220;10.122;2022-12-07T00:32:27;7.57;;;5.43;;
11943;SDS011;6031;50.220;10.122;2022-12-07T00:34:52;9.93;;;7.23;;
11943;SDS011;6031;50.220;10.122;2022-12-07T00:37:18;11.77;;;8.23;;
11943;SDS011;6031;50.220;10.122;2022-12-07T00:39:43;11.03;;;8.03;;
11943;SDS011;6031;50.220;10.122;2022-12-07T00:42:10;15.93;;;9.50;;
11943;SDS011;6031;50.220;10.122;2022-12-07T00:44:36;13.97;;;9.60;;
11943;SDS011;6031;50.220;10.122;2022-12-07T00:47:01;13.27;;;9.70;;
11943;SDS011;6031;50.220;10.122;2022-12-07T00:49:27;11.80;;;7.80;;
11943;SDS011;6031;50.220;10.122;2022-12-07T00:51:53;8.10;;;6.20;;
11943;SDS011;6031;50.220;10.122;2022-12-07T00:54:19;11.30;;;8.43;;
11943;SDS011;6031;50.220;10.122;2022-12-07T00:56:44;14.10;;;10.03;;
11943;SDS011;6031;50.220;10.122;2022-12-07T00:59:10;15.97;;;10.73;;
11943;SDS011;6031;50.220;10.122;2022-12-07T01:01:39;12.20;;;8.33;;
11943;SDS011;6031;50.220;10.122;2022-12-07T01:04:04;10.97;;;8.73;;
11943;SDS011;6031;50.220;10.122;2022-12-07T01:06:30;11.20;;;7.37;;
11943;SDS011;6031;50.220;10.122;2022-12-07T01:08:56;6.83;;;5.63;;
11943;SDS011;6031;50.220;10.122;2022-12-07T01:11:23;13.07;;;6.93;;
11943;SDS011;6031;50.220;10.122;2022-12-07T01:13:52;19.13;;;14.33;;
11943;SDS011;6031;50.220;10.122;2022-12-07T01:16:19;12.80;;;8.63;;
11943;SDS011;6031;50.220;10.122;2022-12-07T01:18:46;8.80;;;6.83;;
11943;SDS011;6031;50.220;10.122;2022-12-07T01:21:14;22.73;;;12.77;;
11943;SDS011;6031;50.220;10.122;2022-12-07T01:23:47;12.87;;;8.20;;
11943;SDS011;6031;50.220;10.122;2022-12-07T01:26:15;12.90;;;7.83;;
11943;SDS011;6031;50.220;10.122;2022-12-07T01:28:42;10.27;;;8.00;;
11943;SDS011;6031;50.220;10.122;2022-12-07T01:31:12;12.03;;;8.17;;
11943;SDS011;6031;50.220;10.122;2022-12-07T01:33:46;17.53;;;10.73;;
11943;SDS011;6031;50.220;10.122;2022-12-07T01:36:19;14.40;;;8.83;;
11943;SDS011;6031;50.220;10.122;2022-12-07T01:38:59;10.20;;;7.90;;
11943;SDS011;6031;50.220;10.122;2022-12-07T01:41:28;12.33;;;8.27;;
11943;SDS011;6031;50.220;10.122;2022-12-07T01:46:41;11.27;;;8.13;;
11943;SDS011;6031;50.220;10.122;2022-12-07T01:49:18;24.23;;;12.63;;
11943;SDS011;6031;50.220;10.122;2022-12-07T01:51:52;71.33;;;33.57;;
11943;SDS011;6031;50.220;10.122;2022-12-07T01:54:29;24.73;;;14.57;;
11943;SDS011;6031;50.220;10.122;2022-12-07T01:56:56;12.33;;;9.00;;
11943;SDS011;6031;50.220;10.122;2022-12-07T01:59:23;15.80;;;10.67;;
11943;SDS011;6031;50.220;10.122;2022-12-07T02:01:51;11.90;;;8.30;;
11943;SDS011;6031;50.220;10.122;2022-12-07T02:04:17;15.40;;;9.20;;
11943;SDS011;6031;50.220;10.122;2022-12-07T02:06:43;39.20;;;18.77;;
11943;SDS011;6031;50.220;10.122;2022-12-07T02:09:10;14.23;;;8.83;;
11943;SDS011;6031;50.220;10.122;2022-12-07T02:11:37;13.03;;;8.77;;
11943;SDS011;6031;50.220;10.122;2022-12-07T02:14:02;37.60;;;23.17;;
11943;SDS011;6031;50.220;10.122;2022-12-07T02:16:34;28.00;;;16.47;;
11943;SDS011;6031;50.220;10.122;2022-12-07T02:24:54;33.00;;;20.53;;
11943;SDS011;6031;50.220;10.122;2022-12-07T02:30:42;18.50;;;11.97;;
11943;SDS011;6031;50.220;10.122;2022-12-07T02:33:24;44.27;;;26.90;;
11943;SDS011;6031;50.220;10.122;2022-12-07T02:35:56;16.03;;;11.07;;
11943;SDS011;6031;50.220;10.122;2022-12-07T02:41:34;14.00;;;10.03;;
11943;SDS011;6031;50.220;10.122;2022-12-07T02:44:06;12.33;;;7.20;;
11943;SDS011;6031;50.220;10.122;2022-12-07T02:46:38;10.27;;;6.93;;
11943;SDS011;6031;50.220;10.122;2022-12-07T02:49:07;15.67;;;9.93;;
11943;SDS011;6031;50.220;10.122;2022-12-07T02:51:33;11.20;;;9.33;;
11943;SDS011;6031;50.220;10.122;2022-12-07T02:54:07;13.27;;;9.67;;
11943;SDS011;6031;50.220;10.122;2022-12-07T02:56:46;11.17;;;8.33;;
11943;SDS011;6031;50.220;10.122;2022-12-07T02:59:30;12.80;;;9.97;;
11943;SDS011;6031;50.220;10.122;2022-12-07T03:05:02;8.97;;;6.83;;
11943;SDS011;6031;50.220;10.122;2022-12-07T03:10:01;12.73;;;9.33;;
11943;SDS011;6031;50.220;10.122;2022-12-07T03:12:43;15.77;;;9.23;;
11943;SDS011;6031;50.220;10.122;2022-12-07T03:15:26;11.77;;;6.70;;
11943;SDS011;6031;50.220;10.122;2022-12-07T03:17:56;12.60;;;8.77;;
11943;SDS011;6031;50.220;10.122;2022-12-07T03:20:25;12.43;;;8.53;;
11943;SDS011;6031;50.220;10.122;2022-12-07T03:22:52;10.77;;;8.40;;
11943;SDS011;6031;50.220;10.122;2022-12-07T03:25:19;10.97;;;6.60;;
11943;SDS011;6031;50.220;10.122;2022-12-07T03:27:48;12.90;;;9.17;;
11943;SDS011;6031;50.220;10.122;2022-12-07T03:30:22;15.67;;;9.70;;
11943;SDS011;6031;50.220;10.122;2022-12-07T03:38:22;13.87;;;8.97;;
11943;SDS011;6031;50.220;10.122;2022-12-07T03:40:59;12.57;;;8.73;;
11943;SDS011;6031;50.220;10.122;2022-12-07T03:43:29;13.77;;;8.70;;
11943;SDS011;6031;50.220;10.122;2022-12-07T03:51:12;10.20;;;7.50;;
11943;SDS011;6031;50.220;10.122;2022-12-07T03:53:48;10.67;;;7.70;;
11943;SDS011;6031;50.220;10.122;2022-12-07T03:56:21;12.90;;;8.87;;
11943;SDS011;6031;50.220;10.122;2022-12-07T03:58:48;12.90;;;8.47;;
11943;SDS011;6031;50.220;10.122;2022-12-07T04:01:14;13.30;;;9.00;;
11943;SDS011;6031;50.220;10.122;2022-12-07T04:03:40;13.23;;;8.60;;
11943;SDS011;6031;50.220;10.122;2022-12-07T04:06:05;10.90;;;8.23;;
11943;SDS011;6031;50.220;10.122;2022-12-07T04:08:31;11.67;;;7.20;;
11943;SDS011;6031;50.220;10.122;2022-12-07T04:10:56;14.67;;;9.30;;
11943;SDS011;6031;50.220;10.122;2022-12-07T04:13:22;12.10;;;9.00;;
11943;SDS011;6031;50.220;10.122;2022-12-07T04:15:48;11.90;;;9.03;;
11943;SDS011;6031;50.220;10.122;2022-12-07T04:18:13;11.13;;;8.17;;
11943;SDS011;6031;50.220;10.122;2022-12-07T04:20:39;14.13;;;9.43;;
11943;SDS011;6031;50.220;10.122;2022-12-07T04:23:04;11.73;;;8.87;;
11943;SDS011;6031;50.220;10.122;2022-12-07T04:25:30;16.50;;;10.17;;
11943;SDS011;6031;50.220;10.122;2022-12-07T04:27:55;16.17;;;8.87;;
11943;SDS011;6031;50.220;10.122;2022-12-07T04:30:21;14.63;;;9.33;;
11943;SDS011;6031;50.220;10.122;2022-12-07T04:32:46;15.87;;;10.13;;
11943;SDS011;6031;50.220;10.122;2022-12-07T04:35:12;17.77;;;10.57;;
11943;SDS011;6031;50.220;10.122;2022-12-07T04:37:37;16.87;;;11.03;;
11943;SDS011;6031;50.220;10.122;2022-12-07T04:40:05;14.73;;;7.93;;
11943;SDS011;6031;50.220;10.122;2022-12-07T04:42:33;17.83;;;10.13;;
11943;SDS011;6031;50.220;10.122;2022-12-07T04:44:59;17.90;;;11.00;;
11943;SDS011;6031;50.220;10.122;2022-12-07T04:47:24;17.33;;;11.10;;
11943;SDS011;6031;50.220;10.122;2022-12-07T04:49:50;14.53;;;10.43;;
11943;SDS011;6031;50.220;10.122;2022-12-07T04:52:15;16.30;;;9.60;;
11943;SDS011;6031;50.220;10.122;2022-12-07T04:54:41;20.50;;;11.87;;
11943;SDS011;6031;50.220;10.122;2022-12-07T04:57:06;18.03;;;10.00;;
11943;SDS011;6031;50.220;10.122;2022-12-07T04:59:32;11.47;;;8.13;;
11943;SDS011;6031;50.220;10.122;2022-12-07T05:01:57;17.57;;;10.83;;
11943;SDS011;6031;50.220;10.122;2022-12-07T05:04:23;13.57;;;10.23;;
11943;SDS011;6031;50.220;10.122;2022-12-07T05:06:48;16.53;;;11.23;;
11943;SDS011;6031;50.220;10.122;2022-12-07T05:09:14;19.40;;;11.47;;
11943;SDS011;6031;50.220;10.122;2022-12-07T05:11:39;16.53;;;10.67;;
11943;SDS011;6031;50.220;10.122;2022-12-07T05:14:09;13.90;;;9.80;;
11943;SDS011;6031;50.220;10.122;2022-12-07T05:16:37;12.50;;;7.93;;
11943;SDS011;6031;50.220;10.122;2022-12-07T05:19:04;15.57;;;11.00;;
11943;SDS011;6031;50.220;10.122;2022-12-07T05:21:30;19.07;;;11.27;;
11943;SDS011;6031;50.220;10.122;2022-12-07T05:23:55;18.03;;;10.87;;
11943;SDS011;6031;50.220;10.122;2022-12-07T05:26:21;16.80;;;10.80;;
11943;SDS011;6031;50.220;10.122;2022-12-07T05:28:53;14.70;;;9.17;;
11943;SDS011;6031;50.220;10.122;2022-12-07T05:31:20;12.20;;;7.93;;
11943;SDS011;6031;50.220;10.122;2022-12-07T05:33:47;15.00;;;10.47;;
11943;SDS011;6031;50.220;10.122;2022-12-07T05:36:13;16.17;;;10.13;;
11943;SDS011;6031;50.220;10.122;2022-12-07T05:38:38;13.87;;;9.90;;
11943;SDS011;6031;50.220;10.122;2022-12-07T05:41:05;14.77;;;10.87;;
11943;SDS011;6031;50.220;10.122;2022-12-07T05:43:31;23.17;;;13.40;;
11943;SDS011;6031;50.220;10.122;2022-12-07T05:45:58;24.70;;;13.80;;
11943;SDS011;6031;50.220;10.122;2022-12-07T05:48:23;14.77;;;9.70;;
11943;SDS011;6031;50.220;10.122;2022-12-07T05:50:50;13.03;;;8.67;;
11943;SDS011;6031;50.220;10.122;2022-12-07T05:53:16;17.70;;;11.87;;
11943;SDS011;6031;50.220;10.122;2022-12-07T05:55:42;12.27;;;8.97;;
11943;SDS011;6031;50.220;10.122;2022-12-07T05:58:08;12.20;;;8.77;;
11943;SDS011;6031;50.220;10.122;2022-12-07T06:00:55;15.83;;;10.50;;
11943;SDS011;6031;50.220;10.122;2022-12-07T06:03:21;21.93;;;14.03;;
11943;SDS011;6031;50.220;10.122;2022-12-07T06:05:47;19.33;;;13.70;;
11943;SDS011;6031;50.220;10.122;2022-12-07T06:08:13;12.73;;;9.40;;
11943;SDS011;6031;50.220;10.122;2022-12-07T06:10:40;15.37;;;11.03;;
11943;SDS011;6031;50.220;10.122;2022-12-07T06:13:06;13.77;;;9.67;;
11943;SDS011;6031;50.220;10.122;2022-12-07T06:15:32;11.93;;;8.13;;
11943;SDS011;6031;50.220;10.122;2022-12-07T06:18:00;14.27;;;10.17;;
11943;SDS011;6031;50.220;10.122;2022-12-07T06:20:25;11.53;;;8.97;;
11943;SDS011;6031;50.220;10.122;2022-12-07T06:22:51;14.10;;;10.63;;
11943;SDS011;6031;50.220;10.122;2022-12-07T06:25:16;9.93;;;7.67;;
11943;SDS011;6031;50.220;10.122;2022-12-07T06:27:42;9.33;;;6.80;;
11943;SDS011;6031;50.220;10.122;2022-12-07T06:30:07;13.73;;;8.80;;
11943;SDS011;6031;50.220;10.122;2022-12-07T06:32:33;16.53;;;10.97;;
11943;SDS011;6031;50.220;10.122;2022-12-07T06:35:01;11.97;;;8.20;;
11943;SDS011;6031;50.220;10.122;2022-12-07T06:37:26;12.83;;;9.63;;
11943;SDS011;6031;50.220;10.122;2022-12-07T06:39:52;12.97;;;8.90;;
11943;SDS011;6031;50.220;10.122;2022-12-07T06:42:18;12.37;;;8.30;;
11943;SDS011;6031;50.220;10.122;2022-12-07T06:44:44;13.43;;;9.53;;
11943;SDS011;6031;50.220;10.122;2022-12-07T06:47:09;14.73;;;9.33;;
11943;SDS011;6031;50.220;10.122;2022-12-07T06:49:36;10.07;;;8.37;;
11943;SDS011;6031;50.220;10.122;2022-12-07T06:52:01;9.27;;;6.67;;
11943;SDS011;6031;50.220;10.122;2022-12-07T06:54:27;8.17;;;6.17;;
11943;SDS011;6031;50.220;10.122;2022-12-07T06:56:55;11.57;;;7.83;;
11943;SDS011;6031;50.220;10.122;2022-12-07T06:59:20;15.30;;;9.20;;
11943;SDS011;6031;50.220;10.122;2022-12-07T07:01:46;12.00;;;8.20;;
11943;SDS011;6031;50.220;10.122;2022-12-07T07:04:11;9.17;;;6.50;;
11943;SDS011;6031;50.220;10.122;2022-12-07T07:06:37;11.40;;;8.17;;
11943;SDS011;6031;50.220;10.122;2022-12-07T07:09:03;15.07;;;9.20;;
11943;SDS011;6031;50.220;10.122;2022-12-07T07:11:28;12.00;;;8.43;;
11943;SDS011;6031;50.220;10.122;2022-12-07T07:13:54;12.17;;;9.00;;
11943;SDS011;6031;50.220;10.122;2022-12-07T07:16:22;13.53;;;8.83;;
11943;SDS011;6031;50.220;10.122;2022-12-07T07:18:48;15.53;;;10.57;;
11943;SDS011;6031;50.220;10.122;2022-12-07T07:21:13;14.30;;;9.83;;
11943;SDS011;6031;50.220;10.122;2022-12-07T07:23:39;14.00;;;9.93;;
11943;SDS011;6031;50.220;10.122;2022-12-07T07:26:04;15.07;;;9.87;;
11943;SDS011;6031;50.220;10.122;2022-12-07T07:28:30;13.93;;;10.60;;
11943;SDS011;6031;50.220;10.122;2022-12-07T07:30:55;14.37;;;11.20;;
11943;SDS011;6031;50.220;10.122;2022-12-07T07:33:21;16.47;;;10.20;;
11943;SDS011;6031;50.220;10.122;2022-12-07T07:35:46;12.13;;;8.57;;
11943;SDS011;6031;50.220;10.122;2022-12-07T07:38:12;9.53;;;6.67;;
11943;SDS011;6031;50.220;10.122;2022-12-07T07:40:38;15.80;;;10.37;;
11943;SDS011;6031;50.220;10.122;2022-12-07T07:43:03;11.43;;;8.63;;
11943;SDS011;6031;50.220;10.122;2022-12-07T07:45:29;14.90;;;10.77;;
11943;SDS011;6031;50.220;10.122;2022-12-07T07:47:54;15.10;;;9.63;;
11943;SDS011;6031;50.220;10.122;2022-12-07T07:50:20;11.73;;;9.60;;
11943;SDS011;6031;50.220;10.122;2022-12-07T07:52:46;10.33;;;8.13;;
11943;SDS011;6031;50.220;10.122;2022-12-07T07:55:12;11.57;;;8.73;;
11943;SDS011;6031;50.220;10.122;2022-12-07T07:57:38;13.03;;;9.23;;
11943;SDS011;6031;50.220;10.122;2022-12-07T08:00:06;16.13;;;8.83;;
11943;SDS011;6031;50.220;10.122;2022-12-07T08:02:33;13.47;;;9.27;;
11943;SDS011;6031;50.220;10.122;2022-12-07T08:04:59;12.30;;;9.40;;
11943;SDS011;6031;50.220;10.122;2022-12-07T08:07:25;13.40;;;9.67;;
11943;SDS011;6031;50.220;10.122;2022-12-07T08:09:51;11.40;;;8.17;;
11943;SDS011;6031;50.220;10.122;2022-12-07T08:12:17;15.37;;;10.07;;
11943;SDS011;6031;50.220;10.122;2022-12-07T08:14:42;15.07;;;8.93;;
11943;SDS011;6031;50.220;10.122;2022-12-07T08:17:08;12.90;;;9.10;;
11943;SDS011;6031;50.220;10.122;2022-12-07T08:19:33;10.27;;;7.40;;
11943;SDS011;6031;50.220;10.122;2022-12-07T08:21:59;12.60;;;8.93;;
11943;SDS011;6031;50.220;10.122;2022-12-07T08:24:25;15.57;;;9.87;;
11943;SDS011;6031;50.220;10.122;2022-12-07T08:26:51;10.43;;;7.30;;
11943;SDS011;6031;50.220;10.122;2022-12-07T08:29:17;12.87;;;8.57;;
11943;SDS011;6031;50.220;10.122;2022-12-07T08:31:42;13.73;;;9.23;;
11943;SDS011;6031;50.220;10.122;2022-12-07T08:34:09;12.73;;;8.87;;
11943;SDS011;6031;50.220;10.122;2022-12-07T08:36:36;13.93;;;8.90;;
11943;SDS011;6031;50.220;10.122;2022-12-07T08:39:02;10.73;;;7.63;;
11943;SDS011;6031;50.220;10.122;2022-12-07T08:41:28;51.20;;;22.07;;
11943;SDS011;6031;50.220;10.122;2022-12-07T08:43:53;33.53;;;17.00;;
11943;SDS011;6031;50.220;10.122;2022-12-07T08:51:14;16.00;;;10.30;;
11943;SDS011;6031;50.220;10.122;2022-12-07T08:53:40;13.00;;;9.87;;
11943;SDS011;6031;50.220;10.122;2022-12-07T08:56:07;25.07;;;15.27;;
11943;SDS011;6031;50.220;10.122;2022-12-07T08:58:34;11.57;;;7.83;;
11943;SDS011;6031;50.220;10.122;2022-12-07T09:01:01;14.43;;;10.70;;
11943;SDS011;6031;50.220;10.122;2022-12-07T09:03:26;12.27;;;9.10;;
11943;SDS011;6031;50.220;10.122;2022-12-07T09:05:52;9.70;;;7.50;;
11943;SDS011;6031;50.220;10.122;2022-12-07T09:08:18;10.00;;;6.70;;
11943;SDS011;6031;50.220;10.122;2022-12-07T09:10:46;11.47;;;8.53;;
11943;SDS011;6031;50.220;10.122;2022-12-07T09:13:12;10.17;;;8.80;;
11943;SDS011;6031;50.220;10.122;2022-12-07T09:15:38;11.40;;;8.60;;
11943;SDS011;6031;50.220;10.122;2022-12-07T09:18:04;11.97;;;7.83;;
11943;SDS011;6031;50.220;10.122;2022-12-07T09:20:30;8.00;;;6.43;;
11943;SDS011;6031;50.220;10.122;2022-12-07T09:22:56;9.57;;;6.97;;
11943;SDS011;6031;50.220;10.122;2022-12-07T09:25:21;7.53;;;6.73;;
11943;SDS011;6031;50.220;10.122;2022-12-07T09:27:47;8.13;;;5.93;;
11943;SDS011;6031;50.220;10.122;2022-12-07T09:30:12;5.73;;;5.13;;
11943;SDS011;6031;50.220;10.122;2022-12-07T09:32:38;5.83;;;5.20;;
11943;SDS011;6031;50.220;10.122;2022-12-07T09:35:04;5.70;;;5.10;;
11943;SDS011;6031;50.220;10.122;2022-12-07T09:37:29;6.57;;;5.50;;
11943;SDS011;6031;50.220;10.122;2022-12-07T09:39:59;8.30;;;6.53;;
11943;SDS011;6031;50.220;10.122;2022-12-07T09:44:57;9.37;;;5.63;;
11943;SDS011;6031;50.220;10.122;2022-12-07T09:47:24;4.50;;;3.90;;
11943;SDS011;6031;50.220;10.122;2022-12-07T09:49:50;8.10;;;4.40;;
11943;SDS011;6031;50.220;10.122;2022-12-07T09:52:18;5.33;;;4.20;;
11943;SDS011;6031;50.220;10.122;2022-12-07T09:54:49;5.00;;;4.00;;
11943;SDS011;6031;50.220;10.122;2022-12-07T09:57:15;5.60;;;4.40;;
11943;SDS011;6031;50.220;10.122;2022-12-07T09:59:44;4.00;;;3.60;;
11943;SDS011;6031;50.220;10.122;2022-12-07T10:05:07;7.20;;;5.33;;
11943;SDS011;6031;50.220;10.122;2022-12-07T10:07:38;5.53;;;4.93;;
11943;SDS011;6031;50.220;10.122;2022-12-07T10:10:04;8.43;;;5.97;;
11943;SDS011;6031;50.220;10.122;2022-12-07T10:15:22;8.07;;;5.77;;
11943;SDS011;6031;50.220;10.122;2022-12-07T10:17:51;6.20;;;5.10;;
11943;SDS011;6031;50.220;10.122;2022-12-07T10:20:21;6.97;;;4.67;;
11943;SDS011;6031;50.220;10.122;2022-12-07T10:22:53;9.50;;;5.47;;
11943;SDS011;6031;50.220;10.122;2022-12-07T10:25:19;4.97;;;4.47;;
11943;SDS011;6031;50.220;10.122;2022-12-07T10:27:57;5.80;;;4.37;;
11943;SDS011;6031;50.220;10.122;2022-12-07T10:30:32;6.47;;;5.50;;
11943;SDS011;6031;50.220;10.122;2022-12-07T10:32:58;5.73;;;4.00;;
11943;SDS011;6031;50.220;10.122;2022-12-07T10:35:28;5.17;;;4.20;;
11943;SDS011;6031;50.220;10.122;2022-12-07T10:37:56;9.87;;;5.10;;
11943;SDS011;6031;50.220;10.122;2022-12-07T10:40:31;5.83;;;4.50;;
11943;SDS011;6031;50.220;10.122;2022-12-07T10:43:05;6.43;;;4.20;;
11943;SDS011;6031;50.220;10.122;2022-12-07T10:51:19;5.23;;;4.73;;
11943;SDS011;6031;50.220;10.122;2022-12-07T10:54:03;4.97;;;4.57;;
11943;SDS011;6031;50.220;10.122;2022-12-07T11:04:59;6.30;;;4.37;;
11943;SDS011;6031;50.220;10.122;2022-12-07T11:07:38;3.73;;;3.33;;
11943;SDS011;6031;50.220;10.122;2022-12-07T11:10:24;5.50;;;3.80;;
11943;SDS011;6031;50.220;10.122;2022-12-07T11:15:24;5.73;;;4.03;;
11943;SDS011;6031;50.220;10.122;2022-12-07T11:18:03;4.93;;;4.20;;
11943;SDS011;6031;50.220;10.122;2022-12-07T11:20:54;4.40;;;3.63;;
11943;SDS011;6031;50.220;10.122;2022-12-07T11:23:39;4.50;;;4.10;;
11943;SDS011;6031;50.220;10.122;2022-12-07T11:37:25;3.93;;;3.53;;
11943;SDS011;6031;50.220;10.122;2022-12-07T11:39:58;4.97;;;4.57;;
11943;SDS011;6031;50.220;10.122;2022-12-07T11:42:39;6.37;;;3.57;;
11943;SDS011;6031;50.220;10.122;2022-12-07T11:45:12;8.37;;;4.37;;
11943;SDS011;6031;50.220;10.122;2022-12-07T11:50:46;7.17;;;3.40;;
11943;SDS011;6031;50.220;10.122;2022-12-07T11:53:25;7.27;;;4.30;;
11943;SDS011;6031;50.220;10.122;2022-12-07T11:58:42;4.37;;;3.70;;
11943;SDS011;6031;50.220;10.122;2022-12-07T12:01:14;5.57;;;3.80;;
11943;SDS011;6031;50.220;10.122;2022-12-07T12:03:52;4.47;;;3.80;;
11943;SDS011;6031;50.220;10.122;2022-12-07T12:06:34;3.77;;;3.30;;
11943;SDS011;6031;50.220;10.122;2022-12-07T12:14:48;5.87;;;2.83;;
11943;SDS011;6031;50.220;10.122;2022-12-07T12:25:50;4.93;;;3.93;;
11943;SDS011;6031;50.220;10.122;2022-12-07T12:31:14;3.87;;;3.50;;
11943;SDS011;6031;50.220;10.122;2022-12-07T12:33:46;4.57;;;4.07;;
11943;SDS011;6031;50.220;10.122;2022-12-07T12:38:50;4.43;;;3.43;;
11943;SDS011;6031;50.220;10.122;2022-12-07T12:44:02;4.20;;;2.73;;
11943;SDS011;6031;50.220;10.122;2022-12-07T12:46:49;5.30;;;3.70;;
11943;SDS011;6031;50.220;10.122;2022-12-07T12:51:44;7.30;;;3.97;;
11943;SDS011;6031;50.220;10.122;2022-12-07T13:12:57;4.00;;;2.87;;
11943;SDS011;6031;50.220;10.122;2022-12-07T13:15:45;4.47;;;2.80;;
11943;SDS011;6031;50.220;10.122;2022-12-07T13:29:13;4.33;;;3.20;;
11943;SDS011;6031;50.220;10.122;2022-12-07T13:31:52;8.07;;;3.70;;
11943;SDS011;6031;50.220;10.122;2022-12-07T13:36:52;4.03;;;2.60;;
11943;SDS011;6031;50.220;10.122;2022-12-07T13:39:18;2.90;;;2.33;;
11943;SDS011;6031;50.220;10.122;2022-12-07T13:41:51;6.07;;;2.63;;
11943;SDS011;6031;50.220;10.122;2022-12-07T13:44:18;3.33;;;2.10;;
11943;SDS011;6031;50.220;10.122;2022-12-07T13:49:44;2.47;;;2.27;;
11943;SDS011;6031;50.220;10.122;2022-12-07T13:52:28;4.73;;;2.40;;
11943;SDS011;6031;50.220;10.122;2022-12-07T13:57:27;4.23;;;2.63;;
11943;SDS011;6031;50.220;10.122;2022-12-07T13:59:59;9.60;;;3.03;;
11943;SDS011;6031;50.220;10.122;2022-12-07T14:02:30;4.37;;;2.00;;
11943;SDS011;6031;50.220;10.122;2022-12-07T14:05:23;5.93;;;3.30;;
11943;SDS011;6031;50.220;10.122;2022-12-07T14:10:26;3.23;;;2.97;;
11943;SDS011;6031;50.220;10.122;2022-12-07T14:13:00;10.80;;;5.13;;
11943;SDS011;6031;50.220;10.122;2022-12-07T14:15:28;10.50;;;6.70;;
11943;SDS011;6031;50.220;10.122;2022-12-07T14:17:56;4.87;;;3.87;;
11943;SDS011;6031;50.220;10.122;2022-12-07T14:22:59;5.83;;;4.60;;
11943;SDS011;6031;50.220;10.122;2022-12-07T14:25:33;4.07;;;3.60;;
11943;SDS011;6031;50.220;10.122;2022-12-07T14:28:23;3.07;;;2.70;;
11943;SDS011;6031;50.220;10.122;2022-12-07T14:30:54;4.83;;;3.47;;
11943;SDS011;6031;50.220;10.122;2022-12-07T14:33:21;7.50;;;4.50;;
11943;SDS011;6031;50.220;10.122;2022-12-07T14:35:47;6.13;;;4.27;;
11943;SDS011;6031;50.220;10.122;2022-12-07T14:38:14;6.20;;;3.17;;
11943;SDS011;6031;50.220;10.122;2022-12-07T14:40:39;5.57;;;4.07;;
11943;SDS011;6031;50.220;10.122;2022-12-07T14:43:08;4.30;;;3.53;;
11943;SDS011;6031;50.220;10.122;2022-12-07T14:45:37;12.63;;;6.67;;
11943;SDS011;6031;50.220;10.122;2022-12-07T14:48:03;12.53;;;6.90;;
11943;SDS011;6031;50.220;10.122;2022-12-07T14:50:29;15.33;;;9.83;;
11943;SDS011;6031;50.220;10.122;2022-12-07T14:53:08;8.13;;;5.90;;
11943;SDS011;6031;50.220;10.122;2022-12-07T14:55:40;6.73;;;4.10;;
11943;SDS011;6031;50.220;10.122;2022-12-07T14:58:05;5.67;;;3.83;;
11943;SDS011;6031;50.220;10.122;2022-12-07T15:00:31;5.10;;;2.70;;
11943;SDS011;6031;50.220;10.122;2022-12-07T15:02:58;6.13;;;3.53;;
11943;SDS011;6031;50.220;10.122;2022-12-07T15:05:23;4.93;;;4.43;;
11943;SDS011;6031;50.220;10.122;2022-12-07T15:07:49;4.77;;;3.40;;
11943;SDS011;6031;50.220;10.122;2022-12-07T15:12:46;5.43;;;3.70;;
11943;SDS011;6031;50.220;10.122;2022-12-07T15:15:12;5.23;;;3.23;;
11943;SDS011;6031;50.220;10.122;2022-12-07T15:17:37;3.67;;;3.37;;
11943;SDS011;6031;50.220;10.122;2022-12-07T15:20:03;4.53;;;3.50;;
11943;SDS011;6031;50.220;10.122;2022-12-07T15:22:30;7.97;;;4.57;;
11943;SDS011;6031;50.220;10.122;2022-12-07T15:24:56;4.10;;;2.97;;
11943;SDS011;6031;50.220;10.122;2022-12-07T15:27:22;3.17;;;2.87;;
11943;SDS011;6031;50.220;10.122;2022-12-07T15:29:47;4.43;;;3.20;;
11943;SDS011;6031;50.220;10.122;2022-12-07T15:32:13;2.73;;;2.53;;
11943;SDS011;6031;50.220;10.122;2022-12-07T15:34:38;7.97;;;3.07;;
11943;SDS011;6031;50.220;10.122;2022-12-07T15:37:04;3.33;;;2.93;;
11943;SDS011;6031;50.220;10.122;2022-12-07T15:39:30;4.43;;;2.60;;
11943;SDS011;6031;50.220;10.122;2022-12-07T15:41:55;3.13;;;2.90;;
11943;SDS011;6031;50.220;10.122;2022-12-07T15:44:21;6.13;;;3.90;;
11943;SDS011;6031;50.220;10.122;2022-12-07T15:47:05;3.53;;;3.23;;
11943;SDS011;6031;50.220;10.122;2022-12-07T15:49:31;3.50;;;3.20;;
11943;SDS011;6031;50.220;10.122;2022-12-07T15:51:56;4.83;;;3.17;;
11943;SDS011;6031;50.220;10.122;2022-12-07T15:54:26;5.67;;;3.20;;
11943;SDS011;6031;50.220;10.122;2022-12-07T15:56:53;6.53;;;3.53;;
11943;SDS011;6031;50.220;10.122;2022-12-07T15:59:19;4.53;;;4.13;;
11943;SDS011;6031;50.220;10.122;2022-12-07T16:01:45;8.17;;;4.13;;
11943;SDS011;6031;50.220;10.122;2022-12-07T16:04:11;5.80;;;3.13;;
11943;SDS011;6031;50.220;10.122;2022-12-07T16:06:37;4.70;;;3.93;;
11943;SDS011;6031;50.220;10.122;2022-12-07T16:09:03;7.57;;;4.10;;
11943;SDS011;6031;50.220;10.122;2022-12-07T16:11:29;8.10;;;4.97;;
11943;SDS011;6031;50.220;10.122;2022-12-07T16:13:55;5.93;;;4.23;;
11943;SDS011;6031;50.220;10.122;2022-12-07T16:16:20;7.90;;;5.73;;
11943;SDS011;6031;50.220;10.122;2022-12-07T16:18:49;13.10;;;6.90;;
11943;SDS011;6031;50.220;10.122;2022-12-07T16:21:15;9.17;;;5.40;;
11943;SDS011;6031;50.220;10.122;2022-12-07T16:23:42;8.00;;;5.67;;
11943;SDS011;6031;50.220;10.122;2022-12-07T16:26:10;9.43;;;5.97;;
11943;SDS011;6031;50.220;10.122;2022-12-07T16:28:40;4.83;;;3.87;;
11943;SDS011;6031;50.220;10.122;2022-12-07T16:31:08;3.37;;;2.93;;
11943;SDS011;6031;50.220;10.122;2022-12-07T16:33:38;3.70;;;2.50;;
11943;SDS011;6031;50.220;10.122;2022-12-07T16:36:06;3.83;;;3.33;;
11943;SDS011;6031;50.220;10.122;2022-12-07T16:38:33;4.10;;;2.93;;
11943;SDS011;6031;50.220;10.122;2022-12-07T16:41:00;4.27;;;3.87;;
11943;SDS011;6031;50.220;10.122;2022-12-07T16:43:25;5.10;;;3.60;;
11943;SDS011;6031;50.220;10.122;2022-12-07T16:45:51;6.07;;;4.07;;
11943;SDS011;6031;50.220;10.122;2022-12-07T16:48:17;6.43;;;4.37;;
11943;SDS011;6031;50.220;10.122;2022-12-07T16:50:43;7.77;;;4.50;;
11943;SDS011;6031;50.220;10.122;2022-12-07T16:53:09;4.87;;;4.10;;
11943;SDS011;6031;50.220;10.122;2022-12-07T16:55:39;7.47;;;5.57;;
11943;SDS011;6031;50.220;10.122;2022-12-07T16:58:06;7.30;;;4.83;;
11943;SDS011;6031;50.220;10.122;2022-12-07T17:00:32;7.13;;;3.40;;
11943;SDS011;6031;50.220;10.122;2022-12-07T17:02:58;8.30;;;4.37;;
11943;SDS011;6031;50.220;10.122;2022-12-07T17:05:24;4.70;;;3.67;;
11943;SDS011;6031;50.220;10.122;2022-12-07T17:07:51;5.03;;;3.90;;
11943;SDS011;6031;50.220;10.122;2022-12-07T17:10:17;5.87;;;5.37;;
11943;SDS011;6031;50.220;10.122;2022-12-07T17:12:43;6.97;;;5.47;;